sensor_id;sensor_type;location;lat;lon;timestamp;pressure;altitude;pressure_sealevel;temperature;humidity
59825;BME280;45703;50.898;6.054;2023-03-26T00:01:02;99388.66;;;9.25;80.87
59825;BME280;45703;50.898;6.054;2023-03-26T00:03:31;99398.47;;;9.24;80.93
59825;BME280;45703;50.898;6.054;2023-03-26T00:06:06;99388.41;;;9.26;80.43
59825;BME280;45703;50.898;6.054;2023-03-26T00:08:36;99396.88;;;9.23;80.77
59825;BME280;45703;50.898;6.054;2023-03-26T00:11:06;99386.69;;;9.20;80.63
59825;BME280;45703;50.898;6.054;2023-03-26T00:13:32;99385.88;;;9.20;80.44
59825;BME280;45703;50.898;6.054;2023-03-26T00:15:58;99389.81;;;9.17;80.40
59825;BME280;45703;50.898;6.054;2023-03-26T00:18:27;99389.69;;;9.12;80.46
59825;BME280;45703;50.898;6.054;2023-03-26T00:21:04;99390.28;;;9.14;80.23
59825;BME280;45703;50.898;6.054;2023-03-26T00:23:31;99372.00;;;9.06;80.68
59825;BME280;45703;50.898;6.054;2023-03-26T00:25:59;99383.69;;;9.05;80.47
59825;BME280;45703;50.898;6.054;2023-03-26T00:28:25;99375.91;;;9.04;80.47
59825;BME280;45703;50.898;6.054;2023-03-26T00:31:02;99376.63;;;8.99;80.42
59825;BME280;45703;50.898;6.054;2023-03-26T00:33:28;99376.63;;;8.99;80.37
59825;BME280;45703;50.898;6.054;2023-03-26T00:35:58;99382.41;;;8.96;80.58
59825;BME280;45703;50.898;6.054;2023-03-26T00:38:26;99373.13;;;8.99;80.54
59825;BME280;45703;50.898;6.054;2023-03-26T00:40:52;99371.31;;;8.99;80.62
59825;BME280;45703;50.898;6.054;2023-03-26T00:43:19;99368.63;;;8.99;80.43
59825;BME280;45703;50.898;6.054;2023-03-26T00:45:50;99364.56;;;8.97;80.20
59825;BME280;45703;50.898;6.054;2023-03-26T00:48:16;99365.41;;;8.97;80.36
59825;BME280;45703;50.898;6.054;2023-03-26T00:50:44;99363.22;;;8.94;80.33
59825;BME280;45703;50.898;6.054;2023-03-26T00:53:11;99352.41;;;8.89;80.50
59825;BME280;45703;50.898;6.054;2023-03-26T00:55:38;99360.19;;;8.91;80.41
59825;BME280;45703;50.898;6.054;2023-03-26T00:58:04;99352.88;;;8.86;80.48
59825;BME280;45703;50.898;6.054;2023-03-26T01:00:33;99352.41;;;8.89;80.34
59825;BME280;45703;50.898;6.054;2023-03-26T01:03:04;99349.63;;;8.84;80.93
59825;BME280;45703;50.898;6.054;2023-03-26T01:05:50;99337.84;;;8.80;80.54
59825;BME280;45703;50.898;6.054;2023-03-26T01:08:51;99340.16;;;8.88;80.25
59825;BME280;45703;50.898;6.054;2023-03-26T01:11:21;99340.97;;;8.89;80.56
59825;BME280;45703;50.898;6.054;2023-03-26T01:14:11;99337.63;;;8.93;80.49
59825;BME280;45703;50.898;6.054;2023-03-26T01:16:52;99342.50;;;8.96;80.49
59825;BME280;45703;50.898;6.054;2023-03-26T01:21:49;99330.22;;;8.95;80.52
59825;BME280;45703;50.898;6.054;2023-03-26T01:24:14;99324.31;;;8.93;80.86
59825;BME280;45703;50.898;6.054;2023-03-26T01:27:05;99325.34;;;8.92;80.83
59825;BME280;45703;50.898;6.054;2023-03-26T01:29:53;99318.19;;;8.93;80.67
59825;BME280;45703;50.898;6.054;2023-03-26T01:41:08;99309.63;;;9.02;81.58
59825;BME280;45703;50.898;6.054;2023-03-26T01:46:10;99309.03;;;9.00;81.08
59825;BME280;45703;50.898;6.054;2023-03-26T01:48:40;99305.91;;;9.03;81.38
59825;BME280;45703;50.898;6.054;2023-03-26T01:51:07;99309.13;;;9.05;81.02
59825;BME280;45703;50.898;6.054;2023-03-26T01:53:45;99299.53;;;9.04;80.92
59825;BME280;45703;50.898;6.054;2023-03-26T02:01:31;99287.94;;;9.10;80.67
59825;BME280;45703;50.898;6.054;2023-03-26T02:04:31;99284.47;;;9.10;80.81
59825;BME280;45703;50.898;6.054;2023-03-26T02:07:34;99267.59;;;9.04;81.34
59825;BME280;45703;50.898;6.054;2023-03-26T02:10:15;99272.91;;;9.04;81.38
59825;BME280;45703;50.898;6.054;2023-03-26T02:12:42;99260.59;;;9.15;81.22
59825;BME280;45703;50.898;6.054;2023-03-26T02:15:09;99260.13;;;9.18;80.90
59825;BME280;45703;50.898;6.054;2023-03-26T02:17:35;99252.41;;;9.16;80.91
59825;BME280;45703;50.898;6.054;2023-03-26T02:20:08;99249.28;;;9.08;81.70
59825;BME280;45703;50.898;6.054;2023-03-26T02:22:35;99234.34;;;9.07;81.42
59825;BME280;45703;50.898;6.054;2023-03-26T02:25:07;99237.00;;;9.07;82.56
59825;BME280;45703;50.898;6.054;2023-03-26T02:27:33;99233.47;;;9.01;83.00
59825;BME280;45703;50.898;6.054;2023-03-26T02:29:58;99225.38;;;8.96;82.95
59825;BME280;45703;50.898;6.054;2023-03-26T02:32:23;99222.56;;;8.91;83.08
59825;BME280;45703;50.898;6.054;2023-03-26T02:34:49;99225.59;;;8.95;82.38
59825;BME280;45703;50.898;6.054;2023-03-26T02:37:15;99220.53;;;8.93;83.05
59825;BME280;45703;50.898;6.054;2023-03-26T02:39:43;99220.75;;;8.92;83.35
59825;BME280;45703;50.898;6.054;2023-03-26T02:42:08;99217.50;;;8.90;83.31
59825;BME280;45703;50.898;6.054;2023-03-26T02:44:34;99211.34;;;8.89;83.13
59825;BME280;45703;50.898;6.054;2023-03-26T02:46:59;99206.50;;;8.86;83.74
59825;BME280;45703;50.898;6.054;2023-03-26T02:49:24;99202.81;;;8.87;84.16
59825;BME280;45703;50.898;6.054;2023-03-26T02:51:50;99197.94;;;8.84;84.18
59825;BME280;45703;50.898;6.054;2023-03-26T02:54:20;99183.28;;;8.82;84.91
59825;BME280;45703;50.898;6.054;2023-03-26T02:56:46;99199.00;;;8.83;84.91
59825;BME280;45703;50.898;6.054;2023-03-26T02:59:11;99183.19;;;8.77;85.02
59825;BME280;45703;50.898;6.054;2023-03-26T03:01:38;99179.47;;;8.78;85.13
59825;BME280;45703;50.898;6.054;2023-03-26T03:04:10;99180.25;;;8.78;85.85
59825;BME280;45703;50.898;6.054;2023-03-26T03:06:36;99173.00;;;8.74;85.59
59825;BME280;45703;50.898;6.054;2023-03-26T03:09:08;99162.00;;;8.70;86.19
59825;BME280;45703;50.898;6.054;2023-03-26T03:11:33;99167.13;;;8.72;86.11
59825;BME280;45703;50.898;6.054;2023-03-26T03:13:59;99148.03;;;8.63;86.93
59825;BME280;45703;50.898;6.054;2023-03-26T03:16:25;99163.53;;;8.66;87.11
59825;BME280;45703;50.898;6.054;2023-03-26T03:18:51;99157.06;;;8.62;87.43
59825;BME280;45703;50.898;6.054;2023-03-26T03:21:22;99157.06;;;8.62;87.20
59825;BME280;45703;50.898;6.054;2023-03-26T03:23:48;99145.84;;;8.60;87.36
59825;BME280;45703;50.898;6.054;2023-03-26T03:26:18;99130.81;;;8.55;87.31
59825;BME280;45703;50.898;6.054;2023-03-26T03:28:49;99146.31;;;8.57;87.54
59825;BME280;45703;50.898;6.054;2023-03-26T03:31:16;99139.38;;;8.57;88.52
59825;BME280;45703;50.898;6.054;2023-03-26T03:33:42;99135.09;;;8.56;88.88
59825;BME280;45703;50.898;6.054;2023-03-26T03:36:11;99124.69;;;8.54;89.09
59825;BME280;45703;50.898;6.054;2023-03-26T03:38:39;99111.53;;;8.48;89.33
59825;BME280;45703;50.898;6.054;2023-03-26T03:41:06;99105.66;;;8.46;89.89
59825;BME280;45703;50.898;6.054;2023-03-26T03:43:32;99099.16;;;8.42;89.82
59825;BME280;45703;50.898;6.054;2023-03-26T03:45:58;99099.75;;;8.44;90.87
59825;BME280;45703;50.898;6.054;2023-03-26T03:48:24;99091.06;;;8.37;92.10
59825;BME280;45703;50.898;6.054;2023-03-26T03:50:50;99087.53;;;8.31;91.53
59825;BME280;45703;50.898;6.054;2023-03-26T03:53:15;99086.59;;;8.26;91.97
59825;BME280;45703;50.898;6.054;2023-03-26T03:55:43;99091.69;;;8.27;92.42
59825;BME280;45703;50.898;6.054;2023-03-26T03:58:25;99089.25;;;8.26;91.86
59825;BME280;45703;50.898;6.054;2023-03-26T04:00:53;99076.22;;;8.24;92.06
59825;BME280;45703;50.898;6.054;2023-03-26T04:03:25;99068.44;;;8.23;93.10
59825;BME280;45703;50.898;6.054;2023-03-26T04:05:52;99061.53;;;8.22;93.07
59825;BME280;45703;50.898;6.054;2023-03-26T04:08:19;99054.59;;;8.21;93.56
59825;BME280;45703;50.898;6.054;2023-03-26T04:10:46;99048.09;;;8.17;93.29
59825;BME280;45703;50.898;6.054;2023-03-26T04:13:12;99049.75;;;8.18;93.85
59825;BME280;45703;50.898;6.054;2023-03-26T04:15:38;99041.63;;;8.13;93.77
59825;BME280;45703;50.898;6.054;2023-03-26T04:18:04;99036.88;;;8.15;93.79
59825;BME280;45703;50.898;6.054;2023-03-26T04:20:41;99031.56;;;8.15;93.94
59825;BME280;45703;50.898;6.054;2023-03-26T04:23:11;99026.00;;;8.16;93.10
59825;BME280;45703;50.898;6.054;2023-03-26T04:25:39;99011.00;;;8.10;94.03
59825;BME280;45703;50.898;6.054;2023-03-26T04:28:07;99021.50;;;8.17;94.05
59825;BME280;45703;50.898;6.054;2023-03-26T04:30:33;98999.22;;;8.06;93.93
59825;BME280;45703;50.898;6.054;2023-03-26T04:33:02;99008.81;;;8.19;95.22
59825;BME280;45703;50.898;6.054;2023-03-26T04:35:33;98995.53;;;8.19;93.49
59825;BME280;45703;50.898;6.054;2023-03-26T04:38:02;99001.41;;;8.21;92.48
59825;BME280;45703;50.898;6.054;2023-03-26T04:40:32;98990.88;;;8.26;91.36
59825;BME280;45703;50.898;6.054;2023-03-26T04:43:00;98988.81;;;8.28;92.37
59825;BME280;45703;50.898;6.054;2023-03-26T04:45:27;98975.97;;;8.25;91.34
59825;BME280;45703;50.898;6.054;2023-03-26T04:47:55;98960.28;;;8.23;92.42
59825;BME280;45703;50.898;6.054;2023-03-26T04:50:22;98968.09;;;8.30;92.57
59825;BME280;45703;50.898;6.054;2023-03-26T04:52:48;98962.78;;;8.30;92.02
59825;BME280;45703;50.898;6.054;2023-03-26T04:55:27;98951.94;;;8.31;92.05
59825;BME280;45703;50.898;6.054;2023-03-26T04:57:56;98948.91;;;8.28;92.67
59825;BME280;45703;50.898;6.054;2023-03-26T05:00:25;98940.16;;;8.27;92.29
59825;BME280;45703;50.898;6.054;2023-03-26T05:02:50;98938.16;;;8.34;91.84
59825;BME280;45703;50.898;6.054;2023-03-26T05:05:19;98938.38;;;8.33;91.79
59825;BME280;45703;50.898;6.054;2023-03-26T05:07:45;98934.34;;;8.30;91.83
59825;BME280;45703;50.898;6.054;2023-03-26T05:10:12;98927.75;;;8.33;90.92
59825;BME280;45703;50.898;6.054;2023-03-26T05:12:39;98923.47;;;8.32;91.06
59825;BME280;45703;50.898;6.054;2023-03-26T05:15:05;98916.22;;;8.27;92.54
59825;BME280;45703;50.898;6.054;2023-03-26T05:17:30;98915.09;;;8.23;93.45
59825;BME280;45703;50.898;6.054;2023-03-26T05:19:59;98908.94;;;8.23;92.00
59825;BME280;45703;50.898;6.054;2023-03-26T05:22:25;98915.41;;;8.27;93.95
59825;BME280;45703;50.898;6.054;2023-03-26T05:24:50;98900.41;;;8.21;93.84
59825;BME280;45703;50.898;6.054;2023-03-26T05:27:16;98902.28;;;8.20;94.50
59825;BME280;45703;50.898;6.054;2023-03-26T05:29:44;98900.28;;;8.16;94.57
59825;BME280;45703;50.898;6.054;2023-03-26T05:32:10;98900.66;;;8.19;93.98
59825;BME280;45703;50.898;6.054;2023-03-26T05:34:35;98898.22;;;8.18;92.84
59825;BME280;45703;50.898;6.054;2023-03-26T05:37:03;98907.34;;;8.22;92.98
59825;BME280;45703;50.898;6.054;2023-03-26T05:39:28;98900.75;;;8.24;93.19
59825;BME280;45703;50.898;6.054;2023-03-26T05:41:54;98899.84;;;8.19;94.29
59825;BME280;45703;50.898;6.054;2023-03-26T05:44:20;98878.47;;;8.14;95.31
59825;BME280;45703;50.898;6.054;2023-03-26T05:46:45;98876.84;;;8.13;95.22
59825;BME280;45703;50.898;6.054;2023-03-26T05:49:11;98874.50;;;8.16;95.58
59825;BME280;45703;50.898;6.054;2023-03-26T05:51:36;98883.50;;;8.15;95.99
59825;BME280;45703;50.898;6.054;2023-03-26T05:54:01;98872.78;;;8.10;96.42
59825;BME280;45703;50.898;6.054;2023-03-26T05:56:33;98872.56;;;8.12;95.94
59825;BME280;45703;50.898;6.054;2023-03-26T05:59:00;98871.53;;;8.13;96.89
59825;BME280;45703;50.898;6.054;2023-03-26T06:01:25;98859.28;;;8.12;96.10
59825;BME280;45703;50.898;6.054;2023-03-26T06:03:51;98862.63;;;8.19;96.86
59825;BME280;45703;50.898;6.054;2023-03-26T06:06:19;98865.72;;;8.16;97.30
59825;BME280;45703;50.898;6.054;2023-03-26T06:08:47;98858.56;;;8.16;96.98
59825;BME280;45703;50.898;6.054;2023-03-26T06:11:16;98852.44;;;8.16;96.58
59825;BME280;45703;50.898;6.054;2023-03-26T06:13:43;98861.22;;;8.16;97.72
59825;BME280;45703;50.898;6.054;2023-03-26T06:16:10;98854.66;;;8.19;98.01
59825;BME280;45703;50.898;6.054;2023-03-26T06:18:36;98854.66;;;8.19;98.04
59825;BME280;45703;50.898;6.054;2023-03-26T06:21:03;98855.47;;;8.19;97.41
59825;BME280;45703;50.898;6.054;2023-03-26T06:23:29;98849.34;;;8.19;98.46
59825;BME280;45703;50.898;6.054;2023-03-26T06:25:55;98844.03;;;8.19;99.49
59825;BME280;45703;50.898;6.054;2023-03-26T06:28:20;98833.03;;;8.15;99.24
59825;BME280;45703;50.898;6.054;2023-03-26T06:30:46;98838.72;;;8.19;98.52
59825;BME280;45703;50.898;6.054;2023-03-26T06:33:12;98838.72;;;8.19;98.95
59825;BME280;45703;50.898;6.054;2023-03-26T06:35:37;98830.72;;;8.19;98.93
59825;BME280;45703;50.898;6.054;2023-03-26T06:38:03;98825.97;;;8.21;96.88
59825;BME280;45703;50.898;6.054;2023-03-26T06:40:29;98818.00;;;8.21;96.36
59825;BME280;45703;50.898;6.054;2023-03-26T06:42:55;98814.31;;;8.22;96.96
59825;BME280;45703;50.898;6.054;2023-03-26T06:45:21;98813.25;;;8.23;96.16
59825;BME280;45703;50.898;6.054;2023-03-26T06:47:47;98815.28;;;8.32;94.96
59825;BME280;45703;50.898;6.054;2023-03-26T06:50:12;98814.53;;;8.37;95.53
59825;BME280;45703;50.898;6.054;2023-03-26T06:52:38;98820.69;;;8.37;96.08
59825;BME280;45703;50.898;6.054;2023-03-26T06:55:04;98806.50;;;8.32;95.31
59825;BME280;45703;50.898;6.054;2023-03-26T06:57:30;98810.84;;;8.38;95.50
59825;BME280;45703;50.898;6.054;2023-03-26T06:59:56;98807.13;;;8.39;94.76
59825;BME280;45703;50.898;6.054;2023-03-26T07:02:21;98814.06;;;8.40;93.86
59825;BME280;45703;50.898;6.054;2023-03-26T07:04:47;98806.34;;;8.38;93.93
59825;BME280;45703;50.898;6.054;2023-03-26T07:07:12;98809.56;;;8.40;93.75
59825;BME280;45703;50.898;6.054;2023-03-26T07:09:38;98804.72;;;8.37;93.67
59825;BME280;45703;50.898;6.054;2023-03-26T07:12:04;98799.41;;;8.37;93.59
59825;BME280;45703;50.898;6.054;2023-03-26T07:14:29;98801.25;;;8.37;94.15
59825;BME280;45703;50.898;6.054;2023-03-26T07:16:59;98793.19;;;8.32;94.59
59825;BME280;45703;50.898;6.054;2023-03-26T07:19:25;98800.38;;;8.31;94.21
59825;BME280;45703;50.898;6.054;2023-03-26T07:21:51;98799.81;;;8.29;94.74
59825;BME280;45703;50.898;6.054;2023-03-26T07:24:17;98788.84;;;8.26;95.40
59825;BME280;45703;50.898;6.054;2023-03-26T07:27:03;98788.84;;;8.26;95.13
59825;BME280;45703;50.898;6.054;2023-03-26T07:29:36;98785.06;;;8.22;95.49
59825;BME280;45703;50.898;6.054;2023-03-26T07:32:17;98786.66;;;8.23;94.99
59825;BME280;45703;50.898;6.054;2023-03-26T07:40:26;98775.38;;;8.16;96.13
59825;BME280;45703;50.898;6.054;2023-03-26T07:43:12;98767.06;;;8.12;97.58
59825;BME280;45703;50.898;6.054;2023-03-26T07:45:42;98757.72;;;8.10;97.39
59825;BME280;45703;50.898;6.054;2023-03-26T07:48:21;98757.94;;;8.08;96.88
59825;BME280;45703;50.898;6.054;2023-03-26T07:50:50;98757.38;;;8.06;97.80
59825;BME280;45703;50.898;6.054;2023-03-26T07:53:15;98746.38;;;7.98;97.41
59825;BME280;45703;50.898;6.054;2023-03-26T07:56:12;98753.38;;;8.04;96.93
59825;BME280;45703;50.898;6.054;2023-03-26T07:58:51;98754.44;;;8.03;97.28
59825;BME280;45703;50.898;6.054;2023-03-26T08:04:35;98740.09;;;8.04;98.81
59825;BME280;45703;50.898;6.054;2023-03-26T08:12:29;98724.72;;;8.06;97.32
59825;BME280;45703;50.898;6.054;2023-03-26T08:15:03;98718.34;;;8.07;97.11
59825;BME280;45703;50.898;6.054;2023-03-26T08:17:37;98701.28;;;8.03;97.02
59825;BME280;45703;50.898;6.054;2023-03-26T08:20:20;98709.81;;;8.05;96.98
59825;BME280;45703;50.898;6.054;2023-03-26T08:22:54;98712.56;;;8.10;96.60
59825;BME280;45703;50.898;6.054;2023-03-26T08:30:49;98691.28;;;8.10;96.10
59825;BME280;45703;50.898;6.054;2023-03-26T08:33:17;98702.72;;;8.10;96.49
59825;BME280;45703;50.898;6.054;2023-03-26T08:35:44;98688.84;;;8.08;96.09
59825;BME280;45703;50.898;6.054;2023-03-26T08:38:12;98687.25;;;8.07;95.67
59825;BME280;45703;50.898;6.054;2023-03-26T09:04:06;98663.50;;;8.34;94.71
59825;BME280;45703;50.898;6.054;2023-03-26T09:09:39;98654.06;;;8.43;94.99
59825;BME280;45703;50.898;6.054;2023-03-26T09:29:31;98634.59;;;8.80;94.89
59825;BME280;45703;50.898;6.054;2023-03-26T09:37:17;98628.06;;;8.92;93.52
59825;BME280;45703;50.898;6.054;2023-03-26T09:40:18;98618.84;;;9.00;93.97
59825;BME280;45703;50.898;6.054;2023-03-26T09:43:25;98624.47;;;9.03;93.79
59825;BME280;45703;50.898;6.054;2023-03-26T09:46:09;98619.16;;;9.03;94.13
59825;BME280;45703;50.898;6.054;2023-03-26T09:48:57;98619.75;;;9.10;94.08
59825;BME280;45703;50.898;6.054;2023-03-26T09:51:38;98612.34;;;9.12;94.04
59825;BME280;45703;50.898;6.054;2023-03-26T10:05:08;98603.44;;;9.28;93.61
59825;BME280;45703;50.898;6.054;2023-03-26T10:15:56;98604.06;;;9.40;92.96
59825;BME280;45703;50.898;6.054;2023-03-26T10:18:55;98587.84;;;9.42;93.24
59825;BME280;45703;50.898;6.054;2023-03-26T10:41:16;98607.84;;;9.18;93.67
59825;BME280;45703;50.898;6.054;2023-03-26T10:55:21;98619.34;;;9.23;93.32
59825;BME280;45703;50.898;6.054;2023-03-26T11:00:58;98612.91;;;9.46;93.32
59825;BME280;45703;50.898;6.054;2023-03-26T11:17:56;98612.28;;;10.43;91.11
59825;BME280;45703;50.898;6.054;2023-03-26T11:20:35;98611.81;;;10.51;90.53
59825;BME280;45703;50.898;6.054;2023-03-26T11:33:40;98625.28;;;10.81;88.51
59825;BME280;45703;50.898;6.054;2023-03-26T11:36:12;98621.56;;;10.87;88.25
59825;BME280;45703;50.898;6.054;2023-03-26T11:38:46;98618.38;;;10.95;87.22
59825;BME280;45703;50.898;6.054;2023-03-26T11:41:24;98618.94;;;11.02;88.66
59825;BME280;45703;50.898;6.054;2023-03-26T11:44:21;98630.44;;;11.12;87.86
59825;BME280;45703;50.898;6.054;2023-03-26T11:46:51;98629.13;;;11.15;86.92
59825;BME280;45703;50.898;6.054;2023-03-26T11:49:24;98622.19;;;11.19;86.34
59825;BME280;45703;50.898;6.054;2023-03-26T11:51:51;98625.91;;;11.13;85.47
59825;BME280;45703;50.898;6.054;2023-03-26T11:54:17;98627.00;;;11.17;86.65
59825;BME280;45703;50.898;6.054;2023-03-26T11:57:01;98642.78;;;11.23;85.90
59825;BME280;45703;50.898;6.054;2023-03-26T11:59:32;98624.63;;;11.25;85.89
59825;BME280;45703;50.898;6.054;2023-03-26T12:04:42;98636.66;;;11.38;86.13
59825;BME280;45703;50.898;6.054;2023-03-26T12:07:17;98633.72;;;11.34;84.94
59825;BME280;45703;50.898;6.054;2023-03-26T12:09:56;98640.91;;;11.29;86.00
59825;BME280;45703;50.898;6.054;2023-03-26T12:12:28;98636.09;;;11.31;85.95
59825;BME280;45703;50.898;6.054;2023-03-26T12:14:56;98640.91;;;11.34;85.49
59825;BME280;45703;50.898;6.054;2023-03-26T12:17:33;98639.84;;;11.30;84.73
59825;BME280;45703;50.898;6.054;2023-03-26T12:19:59;98637.69;;;11.22;84.14
59825;BME280;45703;50.898;6.054;2023-03-26T12:22:32;98645.19;;;11.30;85.29
59825;BME280;45703;50.898;6.054;2023-03-26T12:27:33;98644.41;;;11.29;84.84
59825;BME280;45703;50.898;6.054;2023-03-26T12:32:46;98661.19;;;11.25;85.41
59825;BME280;45703;50.898;6.054;2023-03-26T12:35:24;98661.97;;;11.20;83.98
59825;BME280;45703;50.898;6.054;2023-03-26T12:37:52;98660.66;;;11.18;85.56
59825;BME280;45703;50.898;6.054;2023-03-26T12:42:55;98666.84;;;11.33;84.52
59825;BME280;45703;50.898;6.054;2023-03-26T12:45:22;98671.91;;;11.40;85.18
59825;BME280;45703;50.898;6.054;2023-03-26T12:47:52;98662.81;;;11.31;84.63
59825;BME280;45703;50.898;6.054;2023-03-26T12:50:21;98672.44;;;11.32;83.82
59825;BME280;45703;50.898;6.054;2023-03-26T12:55:39;98671.91;;;11.30;85.10
59825;BME280;45703;50.898;6.054;2023-03-26T12:58:28;98668.16;;;11.26;84.10
59825;BME280;45703;50.898;6.054;2023-03-26T13:06:29;98672.34;;;11.02;83.35
59825;BME280;45703;50.898;6.054;2023-03-26T13:17:56;98679.50;;;10.86;84.42
59825;BME280;45703;50.898;6.054;2023-03-26T13:20:21;98685.34;;;10.83;84.53
59825;BME280;45703;50.898;6.054;2023-03-26T13:23:29;98685.56;;;10.77;85.29
59825;BME280;45703;50.898;6.054;2023-03-26T13:26:15;98679.69;;;10.70;85.17
59825;BME280;45703;50.898;6.054;2023-03-26T13:29:13;98700.44;;;10.58;86.48
59825;BME280;45703;50.898;6.054;2023-03-26T13:37:20;98698.19;;;10.45;87.01
59825;BME280;45703;50.898;6.054;2023-03-26T13:45:43;98698.63;;;10.27;88.19
59825;BME280;45703;50.898;6.054;2023-03-26T13:48:16;98701.72;;;10.14;89.86
59825;BME280;45703;50.898;6.054;2023-03-26T13:50:52;98699.81;;;10.09;89.65
59825;BME280;45703;50.898;6.054;2023-03-26T13:53:24;98713.44;;;10.13;89.34
59825;BME280;45703;50.898;6.054;2023-03-26T13:55:58;98711.31;;;10.10;90.19
59825;BME280;45703;50.898;6.054;2023-03-26T14:01:29;98724.75;;;9.98;90.04
59825;BME280;45703;50.898;6.054;2023-03-26T14:04:32;98722.38;;;9.97;90.31
59825;BME280;45703;50.898;6.054;2023-03-26T14:07:16;98725.97;;;9.86;91.38
59825;BME280;45703;50.898;6.054;2023-03-26T14:09:57;98724.09;;;9.82;91.55
59825;BME280;45703;50.898;6.054;2023-03-26T14:12:32;98721.88;;;9.74;91.54
59825;BME280;45703;50.898;6.054;2023-03-26T14:15:02;98731.66;;;9.68;92.30
59825;BME280;45703;50.898;6.054;2023-03-26T14:17:49;98737.13;;;9.57;92.74
59825;BME280;45703;50.898;6.054;2023-03-26T14:20:30;98739.50;;;9.53;92.43
59825;BME280;45703;50.898;6.054;2023-03-26T14:41:26;98767.16;;;9.04;95.37
59825;BME280;45703;50.898;6.054;2023-03-26T14:52:10;98785.72;;;8.99;95.97
59825;BME280;45703;50.898;6.054;2023-03-26T14:54:40;98791.53;;;8.96;97.07
59825;BME280;45703;50.898;6.054;2023-03-26T14:57:26;98801.13;;;8.97;97.01
59825;BME280;45703;50.898;6.054;2023-03-26T15:10:48;98803.88;;;9.02;95.59
59825;BME280;45703;50.898;6.054;2023-03-26T15:18:49;98815.50;;;8.96;95.74
59825;BME280;45703;50.898;6.054;2023-03-26T15:27:14;98827.88;;;9.07;94.32
59825;BME280;45703;50.898;6.054;2023-03-26T15:35:57;98849.59;;;8.99;95.16
59825;BME280;45703;50.898;6.054;2023-03-26T15:39:10;98851.28;;;9.05;94.94
59825;BME280;45703;50.898;6.054;2023-03-26T15:49:54;98872.00;;;9.03;96.05
59825;BME280;45703;50.898;6.054;2023-03-26T15:52:28;98878.47;;;9.07;94.72
59825;BME280;45703;50.898;6.054;2023-03-26T15:55:20;98888.00;;;9.03;95.21
59825;BME280;45703;50.898;6.054;2023-03-26T16:00:34;98891.69;;;8.86;95.77
59825;BME280;45703;50.898;6.054;2023-03-26T16:03:25;98909.50;;;8.85;95.44
59825;BME280;45703;50.898;6.054;2023-03-26T16:06:19;98912.66;;;8.82;95.48
59825;BME280;45703;50.898;6.054;2023-03-26T16:09:23;98918.16;;;8.76;96.43
59825;BME280;45703;50.898;6.054;2023-03-26T16:11:56;98924.75;;;8.73;96.63
59825;BME280;45703;50.898;6.054;2023-03-26T16:14:40;98926.38;;;8.74;96.32
59825;BME280;45703;50.898;6.054;2023-03-26T16:17:12;98933.78;;;8.72;97.85
59825;BME280;45703;50.898;6.054;2023-03-26T16:19:53;98943.28;;;8.68;98.26
59825;BME280;45703;50.898;6.054;2023-03-26T16:23:00;98943.44;;;8.62;99.26
59825;BME280;45703;50.898;6.054;2023-03-26T16:25:31;98935.72;;;8.60;99.06
59825;BME280;45703;50.898;6.054;2023-03-26T16:31:17;98951.41;;;8.62;98.35
59825;BME280;45703;50.898;6.054;2023-03-26T16:36:30;98972.38;;;8.58;100.00
59825;BME280;45703;50.898;6.054;2023-03-26T16:44:42;98984.34;;;8.45;100.00
59825;BME280;45703;50.898;6.054;2023-03-26T16:47:36;98986.44;;;8.43;100.00
59825;BME280;45703;50.898;6.054;2023-03-26T16:50:20;98992.13;;;8.35;100.00
59825;BME280;45703;50.898;6.054;2023-03-26T16:55:53;99009.03;;;8.29;100.00
59825;BME280;45703;50.898;6.054;2023-03-26T17:03:58;99023.59;;;8.15;100.00
59825;BME280;45703;50.898;6.054;2023-03-26T17:06:45;99022.47;;;8.11;100.00
59825;BME280;45703;50.898;6.054;2023-03-26T17:17:38;99067.66;;;7.99;100.00
59825;BME280;45703;50.898;6.054;2023-03-26T17:22:52;99085.00;;;7.90;100.00
59825;BME280;45703;50.898;6.054;2023-03-26T17:33:30;99110.28;;;7.70;100.00
59825;BME280;45703;50.898;6.054;2023-03-26T17:41:07;99127.00;;;7.59;100.00
59825;BME280;45703;50.898;6.054;2023-03-26T17:43:41;99141.53;;;7.56;100.00
59825;BME280;45703;50.898;6.054;2023-03-26T17:48:59;99159.34;;;7.56;100.00
59825;BME280;45703;50.898;6.054;2023-03-26T17:54:23;99163.38;;;7.47;100.00
59825;BME280;45703;50.898;6.054;2023-03-26T17:56:54;99183.00;;;7.46;100.00
59825;BME280;45703;50.898;6.054;2023-03-26T17:59:22;99163.91;;;7.37;100.00
59825;BME280;45703;50.898;6.054;2023-03-26T18:01:53;99181.09;;;7.35;100.00
59825;BME280;45703;50.898;6.054;2023-03-26T18:04:33;99179.00;;;7.37;100.00
59825;BME280;45703;50.898;6.054;2023-03-26T18:20:45;99218.88;;;7.19;100.00
59825;BME280;45703;50.898;6.054;2023-03-26T18:23:25;99227.09;;;7.17;100.00
59825;BME280;45703;50.898;6.054;2023-03-26T18:26:20;99237.91;;;7.16;100.00
59825;BME280;45703;50.898;6.054;2023-03-26T18:28:52;99243.06;;;7.11;100.00
59825;BME280;45703;50.898;6.054;2023-03-26T18:31:21;99255.97;;;7.07;100.00
59825;BME280;45703;50.898;6.054;2023-03-26T18:33:48;99266.00;;;7.06;100.00
59825;BME280;45703;50.898;6.054;2023-03-26T18:36:16;99265.19;;;7.05;100.00
59825;BME280;45703;50.898;6.054;2023-03-26T18:38:44;99275.00;;;7.05;100.00
59825;BME280;45703;50.898;6.054;2023-03-26T18:41:22;99273.16;;;7.05;100.00
59825;BME280;45703;50.898;6.054;2023-03-26T18:43:48;99274.41;;;7.03;100.00
59825;BME280;45703;50.898;6.054;2023-03-26T18:46:14;99282.44;;;6.96;100.00
59825;BME280;45703;50.898;6.054;2023-03-26T18:48:41;99283.94;;;6.92;100.00
59825;BME280;45703;50.898;6.054;2023-03-26T18:51:07;99293.06;;;6.96;100.00
59825;BME280;45703;50.898;6.054;2023-03-26T18:53:57;99305.50;;;6.96;99.31
59825;BME280;45703;50.898;6.054;2023-03-26T18:56:40;99308.00;;;6.91;98.63
59825;BME280;45703;50.898;6.054;2023-03-26T19:01:46;99311.31;;;6.86;97.93
59825;BME280;45703;50.898;6.054;2023-03-26T19:04:14;99327.41;;;6.91;98.10
59825;BME280;45703;50.898;6.054;2023-03-26T19:06:41;99331.88;;;6.91;98.06
59825;BME280;45703;50.898;6.054;2023-03-26T19:09:08;99329.28;;;6.84;98.42
59825;BME280;45703;50.898;6.054;2023-03-26T19:11:39;99339.47;;;6.87;97.87
59825;BME280;45703;50.898;6.054;2023-03-26T19:14:12;99344.75;;;6.87;98.41